createdAt,value
2023-02-08T00:01:16.336Z,91.31
2023-02-08T00:03:44.496Z,91.15
2023-02-08T00:06:14.256Z,91.01
2023-02-08T00:08:43.544Z,91.05
2023-02-08T00:11:11.007Z,90.65
2023-02-08T00:13:41.656Z,90.35
2023-02-08T00:16:10.404Z,89.72
2023-02-08T00:18:40.677Z,89.53
2023-02-08T00:21:10.574Z,89.80
2023-02-08T00:23:38.189Z,90.57
2023-02-08T00:26:08.089Z,91.15
2023-02-08T00:28:35.766Z,91.50
2023-02-08T00:31:04.160Z,92.17
2023-02-08T00:33:31.411Z,93.11
2023-02-08T00:35:59.995Z,93.70
2023-02-08T00:38:27.597Z,94.37
2023-02-08T00:40:54.935Z,95.06
2023-02-08T00:43:23.806Z,95.83
2023-02-08T00:45:54.687Z,96.66
2023-02-08T00:48:22.213Z,96.56
2023-02-08T00:50:58.595Z,96.70
2023-02-08T00:53:26.097Z,96.46
2023-02-08T00:55:53.361Z,96.42
2023-02-08T00:58:21.997Z,96.44
2023-02-08T01:00:53.299Z,96.13
2023-02-08T01:03:21.405Z,95.62
2023-02-08T01:05:49.124Z,94.50
2023-02-08T01:08:16.928Z,93.47
2023-02-08T01:10:44.668Z,92.93
2023-02-08T01:13:11.638Z,92.13
2023-02-08T01:15:38.840Z,91.83
2023-02-08T01:18:08.241Z,91.60
2023-02-08T01:20:37.100Z,91.00
2023-02-08T01:23:05.309Z,90.91
2023-02-08T01:25:32.477Z,90.92
2023-02-08T01:28:00.118Z,90.92
2023-02-08T01:30:27.465Z,90.86
2023-02-08T01:32:54.630Z,91.66
2023-02-08T01:35:23.456Z,92.52
2023-02-08T01:37:51.026Z,93.17
2023-02-08T01:40:18.369Z,93.49
2023-02-08T01:42:46.143Z,94.02
2023-02-08T01:45:26.664Z,94.32
2023-02-08T01:47:59.594Z,94.25
2023-02-08T01:50:33.408Z,93.96
2023-02-08T01:53:01.704Z,94.18
2023-02-08T01:55:33.479Z,94.23
2023-02-08T01:58:06.512Z,94.56
2023-02-08T02:00:34.117Z,94.72
2023-02-08T02:03:02.392Z,94.96
2023-02-08T02:05:39.472Z,95.09
2023-02-08T02:08:08.405Z,95.27
2023-02-08T02:10:38.301Z,95.34
2023-02-08T02:13:08.457Z,95.45
2023-02-08T02:15:35.657Z,95.46
2023-02-08T02:18:06.068Z,95.58
2023-02-08T02:20:50.960Z,95.63
2023-02-08T02:23:38.003Z,95.50
2023-02-08T02:26:42.555Z,95.67
2023-02-08T02:29:48.905Z,95.39
2023-02-08T02:32:45.005Z,95.67
2023-02-08T02:35:20.371Z,95.68
2023-02-08T02:37:58.131Z,95.97
2023-02-08T02:40:34.794Z,95.82
2023-02-08T02:43:11.657Z,96.21
2023-02-08T02:45:47.119Z,96.05
2023-02-08T02:48:23.544Z,95.66
2023-02-08T02:50:58.489Z,94.74
2023-02-08T02:53:34.518Z,93.60
2023-02-08T02:56:07.147Z,93.02
2023-02-08T02:58:36.619Z,93.17
2023-02-08T03:01:04.316Z,93.10
2023-02-08T03:03:34.897Z,93.44
2023-02-08T03:06:08.065Z,93.57
2023-02-08T03:09:03.025Z,93.61
2023-02-08T03:11:34.877Z,93.69
2023-02-08T03:14:29.766Z,93.64
2023-02-08T03:17:17.696Z,93.98
2023-02-08T03:19:54.649Z,93.89
2023-02-08T03:22:29.564Z,93.85
2023-02-08T03:25:03.541Z,93.68
2023-02-08T03:27:37.619Z,94.00
2023-02-08T03:30:13.007Z,94.10
2023-02-08T03:32:47.489Z,94.29
2023-02-08T03:35:23.324Z,93.69
2023-02-08T03:37:58.828Z,93.45
2023-02-08T03:40:31.478Z,93.81
2023-02-08T03:43:03.735Z,94.02
2023-02-08T03:45:36.649Z,93.67
2023-02-08T03:48:08.148Z,93.70
2023-02-08T03:50:40.290Z,93.86
2023-02-08T03:53:09.652Z,93.88
2023-02-08T03:55:39.767Z,94.15
2023-02-08T03:58:12.345Z,94.03
2023-02-08T04:00:42.978Z,93.92
2023-02-08T04:03:17.647Z,94.16
2023-02-08T04:05:46.959Z,94.36
2023-02-08T04:08:14.684Z,94.70
2023-02-08T04:10:42.578Z,94.98
2023-02-08T04:13:11.989Z,95.25
2023-02-08T04:15:39.149Z,95.32
2023-02-08T04:18:06.792Z,95.39
2023-02-08T04:20:34.191Z,95.27
2023-02-08T04:23:03.743Z,95.62
2023-02-08T04:25:31.298Z,95.75
2023-02-08T04:27:58.746Z,95.73
2023-02-08T04:30:26.020Z,95.93
2023-02-08T04:32:53.329Z,95.93
2023-02-08T04:35:20.528Z,96.22
2023-02-08T04:37:47.700Z,96.09
2023-02-08T04:40:16.410Z,96.09
2023-02-08T04:42:43.875Z,95.97
2023-02-08T04:45:11.282Z,95.77
2023-02-08T04:47:38.768Z,95.65
2023-02-08T04:50:06.559Z,95.35
2023-02-08T04:52:33.698Z,95.05
2023-02-08T04:55:01.345Z,95.05
2023-02-08T04:57:30.371Z,95.12
2023-02-08T05:00:00.055Z,95.16
2023-02-08T05:02:28.164Z,94.82
2023-02-08T05:04:55.500Z,94.82
2023-02-08T05:07:22.946Z,94.60
2023-02-08T05:09:50.497Z,94.40
2023-02-08T05:12:17.907Z,94.31
2023-02-08T05:14:46.558Z,94.02
2023-02-08T05:17:14.097Z,94.15
2023-02-08T05:19:41.756Z,94.23
2023-02-08T05:22:09.197Z,94.33
2023-02-08T05:24:36.770Z,94.32
2023-02-08T05:27:04.259Z,94.07
2023-02-08T05:29:31.841Z,93.59
2023-02-08T05:32:00.705Z,93.43
2023-02-08T05:34:28.041Z,93.51
2023-02-08T05:36:55.193Z,93.20
2023-02-08T05:39:22.444Z,93.25
2023-02-08T05:41:50.027Z,93.08
2023-02-08T05:44:17.444Z,92.71
2023-02-08T05:46:45.085Z,92.80
2023-02-08T05:49:13.948Z,92.48
2023-02-08T05:51:40.846Z,92.34
2023-02-08T05:54:08.449Z,92.42
2023-02-08T05:56:35.819Z,92.50
2023-02-08T05:59:04.235Z,92.08
2023-02-08T06:01:32.320Z,92.29
2023-02-08T06:04:00.628Z,92.09
2023-02-08T06:06:29.783Z,91.90
2023-02-08T06:08:57.056Z,91.70
2023-02-08T06:11:24.192Z,91.22
2023-02-08T06:13:51.379Z,90.99
2023-02-08T06:16:20.051Z,90.59
2023-02-08T06:18:47.506Z,90.23
2023-02-08T06:21:14.899Z,90.58
2023-02-08T06:23:43.594Z,90.72
2023-02-08T06:26:10.851Z,91.09
2023-02-08T06:28:38.247Z,91.07
2023-02-08T06:31:06.321Z,91.40
2023-02-08T06:33:34.992Z,91.21
2023-02-08T06:36:02.144Z,90.97
2023-02-08T06:38:29.514Z,90.72
2023-02-08T06:40:58.418Z,90.18
2023-02-08T06:43:26.411Z,89.84
2023-02-08T06:45:53.680Z,89.94
2023-02-08T06:48:20.798Z,89.84
2023-02-08T06:50:48.003Z,89.54
2023-02-08T06:53:15.250Z,89.58
2023-02-08T06:55:42.438Z,89.41
2023-02-08T06:58:15.868Z,89.18
2023-02-08T07:00:43.326Z,88.88
2023-02-08T07:03:10.747Z,88.52
2023-02-08T07:05:39.156Z,88.33
2023-02-08T07:08:07.377Z,88.13
2023-02-08T07:10:35.212Z,88.03
2023-02-08T07:13:02.827Z,87.69
2023-02-08T07:15:31.945Z,87.38
2023-02-08T07:17:59.453Z,87.33
2023-02-08T07:20:26.768Z,86.79
2023-02-08T07:22:54.314Z,86.17
2023-02-08T07:25:22.387Z,85.72
2023-02-08T07:27:50.422Z,85.25
2023-02-08T07:30:17.247Z,84.74
2023-02-08T07:32:46.520Z,84.36
2023-02-08T07:35:13.799Z,83.03
2023-02-08T07:37:40.968Z,82.80
2023-02-08T07:40:08.848Z,83.09
2023-02-08T07:42:36.605Z,83.86
2023-02-08T07:45:04.504Z,84.47
2023-02-08T07:47:31.700Z,84.54
2023-02-08T07:50:00.563Z,85.07
2023-02-08T07:52:27.840Z,85.11
2023-02-08T07:54:55.181Z,85.60
2023-02-08T07:57:22.615Z,85.56
2023-02-08T07:59:52.026Z,86.15
2023-02-08T08:02:21.310Z,87.90
2023-02-08T08:04:48.963Z,89.29
2023-02-08T08:07:17.902Z,89.35
2023-02-08T08:09:45.329Z,88.42
2023-02-08T08:12:12.698Z,87.50
2023-02-08T08:14:39.917Z,86.77
2023-02-08T08:17:07.172Z,86.54
2023-02-08T08:19:34.521Z,86.16
2023-02-08T08:22:01.781Z,85.84
2023-02-08T08:24:31.174Z,87.03
2023-02-08T08:26:58.747Z,88.87
2023-02-08T08:29:26.226Z,88.58
2023-02-08T08:31:54.291Z,87.87
2023-02-08T08:34:21.931Z,85.30
2023-02-08T08:36:49.121Z,83.76
2023-02-08T08:39:16.393Z,81.91
2023-02-08T08:41:45.315Z,80.39
2023-02-08T08:44:12.458Z,77.64
2023-02-08T08:46:39.672Z,75.43
2023-02-08T08:49:07.330Z,73.26
2023-02-08T08:51:34.933Z,72.00
2023-02-08T08:54:02.243Z,71.39
2023-02-08T08:56:30.102Z,69.65
2023-02-08T08:59:00.741Z,69.37
2023-02-08T09:01:27.748Z,67.07
2023-02-08T09:03:55.073Z,65.84
2023-02-08T09:06:22.374Z,65.69
2023-02-08T09:08:51.752Z,65.26
2023-02-08T09:11:19.577Z,64.24
2023-02-08T09:13:46.699Z,62.66
2023-02-08T09:16:17.048Z,62.47
2023-02-08T09:18:44.900Z,64.07
2023-02-08T09:21:14.617Z,63.94
2023-02-08T09:23:42.207Z,59.11
2023-02-08T09:26:11.777Z,55.39
2023-02-08T09:28:39.657Z,54.42
2023-02-08T09:31:10.857Z,55.11
2023-02-08T09:33:39.928Z,54.86
2023-02-08T09:36:08.040Z,53.08
2023-02-08T09:38:35.810Z,53.58
2023-02-08T09:41:15.007Z,53.68
2023-02-08T09:43:52.827Z,51.64
2023-02-08T09:46:23.437Z,51.60
2023-02-08T09:48:55.133Z,50.93
2023-02-08T09:51:30.727Z,50.87
2023-02-08T09:54:03.007Z,50.34
2023-02-08T09:56:37.167Z,49.48
2023-02-08T09:59:04.651Z,48.22
2023-02-08T10:01:34.184Z,47.83
2023-02-08T10:04:09.475Z,47.03
2023-02-08T10:06:37.046Z,45.60
2023-02-08T10:09:07.639Z,45.25
2023-02-08T10:11:50.662Z,44.89
2023-02-08T10:14:44.901Z,43.78
2023-02-08T10:17:36.657Z,44.02
2023-02-08T10:20:17.065Z,43.46
2023-02-08T10:22:57.101Z,43.21
2023-02-08T10:25:41.544Z,43.38
2023-02-08T10:28:26.990Z,42.52
2023-02-08T10:31:01.909Z,43.26
2023-02-08T10:33:37.957Z,42.76
2023-02-08T10:36:14.903Z,43.01
2023-02-08T10:38:46.761Z,42.84
2023-02-08T10:41:20.568Z,42.71
2023-02-08T10:43:54.212Z,43.59
2023-02-08T10:46:28.454Z,43.97
2023-02-08T10:49:05.774Z,43.41
2023-02-08T10:51:35.126Z,42.77
2023-02-08T10:54:02.434Z,42.26
2023-02-08T10:56:41.486Z,42.06
2023-02-08T10:59:17.166Z,42.57
2023-02-08T11:01:47.032Z,42.15
2023-02-08T11:04:14.804Z,43.18
2023-02-08T11:06:46.326Z,42.93
2023-02-08T11:09:28.668Z,42.35
2023-02-08T11:11:57.831Z,42.20
2023-02-08T11:14:44.342Z,42.54
2023-02-08T11:17:26.188Z,42.27
2023-02-08T11:19:54.345Z,42.08
2023-02-08T11:22:26.749Z,41.84
2023-02-08T11:24:57.704Z,42.13
2023-02-08T11:27:33.613Z,42.96
2023-02-08T11:30:22.280Z,41.56
2023-02-08T11:33:10.582Z,41.73
2023-02-08T11:35:38.422Z,42.52
2023-02-08T11:38:18.416Z,42.14
2023-02-08T11:40:46.450Z,42.47
2023-02-08T11:43:23.056Z,43.02
2023-02-08T11:45:51.019Z,42.94
2023-02-08T11:48:25.855Z,42.30
2023-02-08T11:50:57.134Z,42.00
2023-02-08T11:53:30.069Z,41.86
2023-02-08T11:56:06.302Z,41.20
2023-02-08T11:58:34.512Z,40.67
2023-02-08T12:01:04.902Z,39.82
2023-02-08T12:03:37.015Z,39.61
2023-02-08T12:06:30.575Z,39.05
2023-02-08T12:09:12.883Z,38.71
2023-02-08T12:11:43.492Z,38.53
2023-02-08T12:14:27.077Z,38.39
2023-02-08T12:17:13.004Z,37.52
2023-02-08T12:20:03.584Z,38.01
2023-02-08T12:22:31.397Z,38.98
2023-02-08T12:25:19.799Z,38.54
2023-02-08T12:27:53.920Z,37.58
2023-02-08T12:30:30.241Z,37.32
2023-02-08T12:33:31.345Z,37.35
2023-02-08T12:36:08.915Z,37.45
2023-02-08T12:38:57.645Z,36.62
2023-02-08T12:41:36.043Z,36.20
2023-02-08T12:44:15.137Z,35.52
2023-02-08T12:46:59.002Z,35.89
2023-02-08T12:49:48.447Z,35.57
2023-02-08T12:52:26.097Z,34.90
2023-02-08T12:54:57.387Z,35.24
2023-02-08T12:57:31.680Z,34.84
2023-02-08T13:00:03.586Z,34.01
2023-02-08T13:02:36.135Z,34.71
2023-02-08T13:05:07.734Z,34.33
2023-02-08T13:07:41.829Z,33.90
2023-02-08T13:10:19.597Z,33.23
2023-02-08T13:12:53.444Z,33.44
2023-02-08T13:15:30.498Z,33.63
2023-02-08T13:18:00.433Z,34.04
2023-02-08T13:20:38.441Z,33.21
2023-02-08T13:23:16.129Z,33.16
2023-02-08T13:25:44.892Z,32.28
2023-02-08T13:28:20.470Z,32.39
2023-02-08T13:30:56.009Z,32.67
2023-02-08T13:33:34.115Z,32.95
2023-02-08T13:36:02.227Z,32.55
2023-02-08T13:38:33.260Z,31.88
2023-02-08T13:41:07.316Z,31.52
2023-02-08T13:43:42.700Z,30.67
2023-02-08T13:46:11.789Z,30.00
2023-02-08T13:48:45.381Z,30.01
2023-02-08T13:51:57.459Z,30.11
2023-02-08T13:54:24.900Z,30.04
2023-02-08T13:56:53.047Z,29.99
2023-02-08T13:59:42.747Z,30.31
2023-02-08T14:02:22.046Z,30.94
2023-02-08T14:04:51.323Z,31.64
2023-02-08T14:07:26.202Z,31.61
2023-02-08T14:10:18.556Z,31.07
2023-02-08T14:12:54.973Z,30.68
2023-02-08T14:15:31.365Z,30.43
2023-02-08T14:18:01.110Z,30.32
2023-02-08T14:20:35.389Z,30.18
2023-02-08T14:23:04.810Z,30.26
2023-02-08T14:25:43.093Z,30.43
2023-02-08T14:28:26.122Z,30.15
2023-02-08T14:30:59.145Z,30.26
2023-02-08T14:33:29.458Z,30.26
2023-02-08T14:35:58.975Z,30.22
2023-02-08T14:38:52.497Z,31.05
2023-02-08T14:41:49.388Z,31.79
2023-02-08T14:44:53.561Z,32.38
2023-02-08T14:48:03.301Z,32.86
2023-02-08T14:50:50.393Z,33.24
2023-02-08T14:53:27.113Z,33.09
2023-02-08T14:55:59.588Z,33.53
2023-02-08T14:58:30.741Z,33.11
2023-02-08T15:01:02.281Z,33.00
2023-02-08T15:03:33.504Z,32.82
2023-02-08T15:06:33.252Z,32.96
2023-02-08T15:09:02.567Z,33.26
2023-02-08T15:11:32.542Z,33.78
2023-02-08T15:14:03.520Z,33.85
2023-02-08T15:16:35.294Z,34.58
2023-02-08T15:19:05.527Z,35.17
2023-02-08T15:21:32.858Z,35.93
2023-02-08T15:24:05.908Z,36.70
2023-02-08T15:26:33.434Z,37.36
2023-02-08T15:29:00.915Z,37.30
2023-02-08T15:31:32.971Z,36.67
2023-02-08T15:34:02.747Z,36.52
2023-02-08T15:36:32.154Z,36.93
2023-02-08T15:39:09.895Z,36.89
2023-02-08T15:41:37.080Z,37.14
2023-02-08T15:44:17.517Z,37.53
2023-02-08T15:46:46.439Z,37.66
2023-02-08T15:49:16.351Z,37.92
2023-02-08T15:51:45.778Z,38.35
2023-02-08T15:54:18.470Z,38.65
2023-02-08T15:56:51.375Z,39.02
2023-02-08T15:59:24.388Z,39.31
2023-02-08T16:01:53.512Z,39.53
2023-02-08T16:04:21.229Z,40.16
2023-02-08T16:06:52.000Z,40.47
2023-02-08T16:09:24.963Z,40.35
2023-02-08T16:11:53.356Z,40.66
2023-02-08T16:14:27.034Z,40.99
2023-02-08T16:16:58.975Z,41.08
2023-02-08T16:19:28.473Z,41.48
2023-02-08T16:21:57.525Z,41.89
2023-02-08T16:24:28.086Z,42.24
2023-02-08T16:27:01.098Z,43.28
2023-02-08T16:29:30.964Z,43.36
2023-02-08T16:32:02.140Z,43.61
2023-02-08T16:34:31.695Z,44.37
2023-02-08T16:36:59.718Z,44.67
2023-02-08T16:39:39.800Z,44.98
2023-02-08T16:42:20.856Z,45.32
2023-02-08T16:45:11.381Z,45.34
2023-02-08T16:47:41.353Z,45.29
2023-02-08T16:50:11.303Z,45.13
2023-02-08T16:52:39.264Z,44.77
2023-02-08T16:55:16.941Z,44.59
2023-02-08T16:57:46.289Z,44.57
2023-02-08T17:00:19.374Z,44.38
2023-02-08T17:02:46.834Z,44.55
2023-02-08T17:05:14.972Z,44.70
2023-02-08T17:07:43.028Z,44.81
2023-02-08T17:10:18.842Z,45.23
2023-02-08T17:12:46.513Z,45.17
2023-02-08T17:15:13.921Z,45.23
2023-02-08T17:17:41.494Z,45.55
2023-02-08T17:20:18.188Z,45.60
2023-02-08T17:22:45.753Z,45.52
2023-02-08T17:25:14.975Z,45.69
2023-02-08T17:27:42.288Z,45.86
2023-02-08T17:30:18.533Z,46.37
2023-02-08T17:32:45.783Z,46.36
2023-02-08T17:35:15.272Z,46.53
2023-02-08T17:37:42.507Z,46.57
2023-02-08T17:40:10.499Z,46.70
2023-02-08T17:42:39.378Z,47.19
2023-02-08T17:45:08.275Z,47.26
2023-02-08T17:47:36.380Z,47.45
2023-02-08T17:50:03.943Z,47.72
2023-02-08T17:52:31.324Z,48.27
2023-02-08T17:54:58.735Z,48.74
2023-02-08T17:57:26.420Z,48.85
2023-02-08T17:59:55.688Z,49.32
2023-02-08T18:02:22.978Z,49.92
2023-02-08T18:04:50.324Z,49.73
2023-02-08T18:07:17.514Z,49.75
2023-02-08T18:09:45.110Z,50.05
2023-02-08T18:12:12.452Z,50.27
2023-02-08T18:14:39.608Z,50.51
2023-02-08T18:17:08.424Z,50.79
2023-02-08T18:19:35.843Z,51.09
2023-02-08T18:22:02.982Z,51.14
2023-02-08T18:24:31.275Z,51.17
2023-02-08T18:26:59.855Z,51.66
2023-02-08T18:29:27.516Z,52.02
2023-02-08T18:31:55.298Z,51.72
2023-02-08T18:34:24.292Z,51.85
2023-02-08T18:36:51.401Z,51.78
2023-02-08T18:39:18.670Z,51.98
2023-02-08T18:41:45.887Z,51.70
2023-02-08T18:44:13.401Z,51.61
2023-02-08T18:46:40.942Z,51.57
2023-02-08T18:49:08.120Z,51.25
2023-02-08T18:51:37.498Z,51.50
2023-02-08T18:54:05.112Z,51.13
2023-02-08T18:56:32.313Z,51.43
2023-02-08T18:58:59.633Z,51.47
2023-02-08T19:01:27.653Z,51.62
2023-02-08T19:03:54.937Z,51.90
2023-02-08T19:06:24.784Z,51.44
2023-02-08T19:08:55.785Z,51.46
2023-02-08T19:11:24.991Z,51.38
2023-02-08T19:13:53.788Z,51.33
2023-02-08T19:16:22.204Z,51.31
2023-02-08T19:18:49.699Z,51.33
2023-02-08T19:21:18.283Z,51.16
2023-02-08T19:23:47.089Z,51.41
2023-02-08T19:26:18.572Z,51.27
2023-02-08T19:28:46.415Z,51.45
2023-02-08T19:31:16.340Z,52.05
2023-02-08T19:33:45.824Z,52.24
2023-02-08T19:36:15.635Z,52.48
2023-02-08T19:38:43.190Z,52.42
2023-02-08T19:41:16.682Z,52.28
2023-02-08T19:43:45.670Z,52.69
2023-02-08T19:46:15.227Z,52.66
2023-02-08T19:48:42.818Z,52.81
2023-02-08T19:51:10.652Z,52.88
2023-02-08T19:53:38.229Z,52.91
2023-02-08T19:56:07.517Z,53.37
2023-02-08T19:58:36.859Z,53.46
2023-02-08T20:01:06.678Z,53.68
2023-02-08T20:03:33.989Z,54.15
2023-02-08T20:06:02.258Z,54.23
2023-02-08T20:08:30.443Z,54.28
2023-02-08T20:10:57.571Z,54.45
2023-02-08T20:13:24.992Z,55.06
2023-02-08T20:15:58.260Z,56.03
2023-02-08T20:18:25.878Z,56.41
2023-02-08T20:21:00.787Z,56.51
2023-02-08T20:23:28.645Z,56.86
2023-02-08T20:26:08.594Z,57.82
2023-02-08T20:28:38.250Z,58.13
2023-02-08T20:31:11.953Z,58.07
2023-02-08T20:33:40.075Z,58.57
2023-02-08T20:36:10.049Z,59.05
2023-02-08T20:38:38.242Z,59.13
2023-02-08T20:41:07.898Z,59.55
2023-02-08T20:43:35.689Z,60.30
2023-02-08T20:46:06.569Z,60.51
2023-02-08T20:48:36.069Z,60.46
2023-02-08T20:51:08.176Z,61.20
2023-02-08T20:53:37.078Z,61.55
2023-02-08T20:56:09.272Z,61.81
2023-02-08T20:58:36.713Z,61.64
2023-02-08T21:01:07.926Z,61.84
2023-02-08T21:03:37.007Z,62.63
2023-02-08T21:06:12.875Z,63.54
2023-02-08T21:08:40.601Z,63.32
2023-02-08T21:11:07.976Z,63.73
2023-02-08T21:13:35.359Z,63.26
2023-02-08T21:16:05.738Z,63.57
2023-02-08T21:18:32.862Z,63.94
2023-02-08T21:21:02.145Z,63.84
2023-02-08T21:23:29.508Z,64.58
2023-02-08T21:25:58.557Z,64.99
2023-02-08T21:28:26.305Z,64.61
2023-02-08T21:30:58.060Z,65.05
2023-02-08T21:33:25.821Z,65.07
2023-02-08T21:35:53.718Z,64.87
2023-02-08T21:38:22.581Z,65.08
2023-02-08T21:40:49.802Z,65.48
2023-02-08T21:43:17.211Z,65.71
2023-02-08T21:45:44.480Z,65.99
2023-02-08T21:48:11.673Z,66.12
2023-02-08T21:50:39.027Z,66.60
2023-02-08T21:53:06.258Z,66.71
2023-02-08T21:55:35.074Z,66.53
2023-02-08T21:58:02.541Z,66.09
2023-02-08T22:00:29.935Z,65.84
2023-02-08T22:02:57.256Z,65.81
2023-02-08T22:05:24.656Z,66.01
2023-02-08T22:07:53.974Z,65.36
2023-02-08T22:10:22.622Z,65.87
2023-02-08T22:12:51.741Z,66.19
2023-02-08T22:15:20.614Z,65.98
2023-02-08T22:17:48.117Z,66.05
2023-02-08T22:20:16.041Z,66.24
2023-02-08T22:22:43.389Z,66.38
2023-02-08T22:25:11.194Z,66.48
2023-02-08T22:27:39.488Z,66.48
2023-02-08T22:30:11.291Z,66.80
2023-02-08T22:32:40.511Z,66.76
2023-02-08T22:35:08.340Z,66.97
2023-02-08T22:37:36.508Z,67.37
2023-02-08T22:40:06.221Z,67.44
2023-02-08T22:42:33.930Z,67.55
2023-02-08T22:45:01.123Z,67.93
2023-02-08T22:47:30.575Z,67.96
2023-02-08T22:49:58.217Z,68.39
2023-02-08T22:52:25.476Z,67.83
2023-02-08T22:54:53.378Z,67.72
2023-02-08T22:57:21.018Z,67.05
2023-02-08T22:59:48.279Z,67.10
2023-02-08T23:02:15.910Z,66.73
2023-02-08T23:04:44.823Z,66.63
2023-02-08T23:07:12.213Z,65.86
2023-02-08T23:09:40.132Z,65.74
2023-02-08T23:12:07.965Z,65.16
2023-02-08T23:14:35.378Z,65.03
2023-02-08T23:17:02.667Z,65.02
2023-02-08T23:19:29.815Z,64.87
2023-02-08T23:22:00.522Z,64.52
2023-02-08T23:24:28.748Z,64.46
2023-02-08T23:26:56.150Z,65.07
2023-02-08T23:29:23.453Z,64.72
2023-02-08T23:31:51.105Z,64.70
2023-02-08T23:34:18.663Z,64.81
2023-02-08T23:36:46.869Z,64.57
2023-02-08T23:39:16.202Z,65.08
2023-02-08T23:41:43.439Z,64.71
2023-02-08T23:44:10.624Z,64.34
2023-02-08T23:46:38.542Z,64.37
2023-02-08T23:49:06.248Z,64.35
2023-02-08T23:51:34.269Z,64.24
2023-02-08T23:54:01.569Z,64.33
2023-02-08T23:56:31.517Z,64.38
2023-02-08T23:58:59.719Z,64.50
